Time;durP1;ratioP1;P1;durP2;ratioP2;P2;SDS_P1;SDS_P2;PMS_P1;PMS_P2;Temp;Humidity;BMP_temperature;BMP_pressure;BME280_temperature;BME280_humidity;BME280_pressure;Samples;Min_cycle;Max_cycle;Signal;HPM_P1;HPM_P2
2023/04/23 00:01:25;;;;;;;0.52;0.30;;;;;;;9.38;47.24;99470.31;5123562;28;20054;-68
2023/04/23 00:03:54;;;;;;;0.10;0.10;;;;;;;9.33;47.29;99473.84;5124459;28;20039;-68
2023/04/23 00:06:25;;;;;;;0.47;0.30;;;;;;;9.30;47.13;99471.69;5124223;27;20043;-68
2023/04/23 00:08:53;;;;;;;0.28;0.20;;;;;;;9.29;46.94;99478.22;5122927;28;20035;-68
2023/04/23 00:11:20;;;;;;;0.20;0.20;;;;;;;9.34;46.14;99478.22;5125063;28;20039;-68
2023/04/23 00:13:48;;;;;;;0.47;0.40;;;;;;;9.41;45.60;99475.22;5123485;27;20043;-69
2023/04/23 00:16:15;;;;;;;0.30;0.30;;;;;;;9.45;45.83;99488.03;5123146;27;20147;-69
2023/04/23 00:18:41;;;;;;;0.40;0.20;;;;;;;9.47;45.54;99485.03;5126782;27;20484;-69
2023/04/23 00:21:08;;;;;;;0.20;0.20;;;;;;;9.41;45.79;99486.97;5124872;28;20061;-70
2023/04/23 00:23:35;;;;;;;0.28;0.10;;;;;;;9.33;46.02;99463.78;5124723;27;20047;-70
2023/04/23 00:26:01;;;;;;;0.20;0.20;;;;;;;9.39;46.14;99485.59;5126447;27;20430;-69
2023/04/23 00:28:28;;;;;;;0.52;0.20;;;;;;;9.32;46.38;99491.31;5127712;27;20100;-69
2023/04/23 00:30:54;;;;;;;0.30;0.30;;;;;;;9.20;46.40;99477.97;5127938;27;20047;-69
2023/04/23 00:33:20;;;;;;;0.17;0.17;;;;;;;9.25;46.79;99494.31;5128402;27;20043;-69
2023/04/23 00:35:47;;;;;;;0.50;0.30;;;;;;;9.22;46.58;99497.59;5127669;27;20071;-68
2023/04/23 00:38:14;;;;;;;0.20;0.20;;;;;;;9.24;46.78;99495.41;5126960;27;20051;-69
2023/04/23 00:40:42;;;;;;;0.20;0.20;;;;;;;9.28;46.83;99491.03;5127012;27;20111;-70
2023/04/23 00:43:08;;;;;;;0.40;0.20;;;;;;;9.31;46.53;99493.25;5126729;27;20047;-70
2023/04/23 00:45:35;;;;;;;0.25;0.22;;;;;;;9.31;46.53;99498.69;5094682;27;20040;-69
2023/04/23 00:48:02;;;;;;;0.20;0.20;;;;;;;9.32;46.49;99502.22;5108274;27;20047;-68
2023/04/23 00:50:29;;;;;;;0.20;0.20;;;;;;;9.25;46.44;99501.69;5110868;27;20751;-70
2023/04/23 00:52:55;;;;;;;0.20;0.20;;;;;;;9.20;46.95;99503.31;5126408;27;20159;-70
2023/04/23 00:55:21;;;;;;;0.88;0.20;;;;;;;9.20;47.30;99499.78;5125325;27;20414;-69
2023/04/23 00:57:49;;;;;;;0.30;0.30;;;;;;;9.14;47.14;99506.34;5129631;27;20525;-69
2023/04/23 01:00:17;;;;;;;0.20;0.20;;;;;;;9.08;47.22;99500.88;5124690;27;20096;-69
2023/04/23 01:02:44;;;;;;;0.30;0.30;;;;;;;9.04;47.62;99505.25;5128470;27;20051;-70
2023/04/23 01:05:13;;;;;;;0.30;0.30;;;;;;;9.05;47.81;99504.16;5127478;27;20047;-69
2023/04/23 01:07:40;;;;;;;0.38;0.30;;;;;;;9.00;47.82;99509.59;5125106;27;20047;-69
2023/04/23 01:10:07;;;;;;;;;;;;;;;8.93;47.95;99504.41;5090738;27;20073;-69
2023/04/23 01:12:33;;;;;;;0.23;0.20;;;;;;;8.89;47.64;99506.03;5122545;27;20008;-69
2023/04/23 01:15:02;;;;;;;0.30;0.20;;;;;;;8.86;47.40;99506.56;5109316;27;20067;-69
2023/04/23 01:17:31;;;;;;;0.30;0.30;;;;;;;8.85;47.72;99507.66;5111166;27;20070;-69
2023/04/23 01:19:57;;;;;;;0.20;0.20;;;;;;;8.80;47.82;99507.66;5124617;27;20139;-69
2023/04/23 01:22:25;;;;;;;0.22;0.22;;;;;;;8.80;48.32;99511.19;5126974;27;20146;-69
2023/04/23 01:24:51;;;;;;;0.20;0.20;;;;;;;8.77;48.35;99510.94;5125008;27;20081;-68
2023/04/23 01:27:19;;;;;;;0.40;0.28;;;;;;;8.74;48.71;99504.09;5108658;27;20047;-68
2023/04/23 01:29:46;;;;;;;0.30;0.30;;;;;;;8.68;49.14;99512.53;5108472;27;20108;-69
2023/04/23 01:32:13;;;;;;;0.13;0.13;;;;;;;8.69;49.28;99515.00;5091754;27;20051;-68
2023/04/23 01:34:40;;;;;;;0.25;0.25;;;;;;;8.70;49.21;99513.09;5126993;27;20049;-68
2023/04/23 01:37:08;;;;;;;0.20;0.20;;;;;;;8.72;49.43;99509.00;5107739;27;20043;-68
2023/04/23 01:39:36;;;;;;;0.20;0.20;;;;;;;8.75;49.24;99515.84;5125848;27;20047;-68
2023/04/23 01:42:02;;;;;;;0.25;0.25;;;;;;;8.82;49.08;99513.66;5106996;27;20540;-69
2023/04/23 01:44:29;;;;;;;0.25;0.20;;;;;;;8.85;48.79;99521.28;5109164;27;20039;-68
2023/04/23 01:46:56;;;;;;;0.20;0.20;;;;;;;8.88;48.70;99518.03;5125555;27;20049;-68
2023/04/23 01:49:22;;;;;;;0.25;0.25;;;;;;;8.84;48.39;99518.84;5127296;27;20449;-69
2023/04/23 01:51:48;;;;;;;0.68;0.32;;;;;;;8.81;48.29;99525.66;5108953;27;20055;-69
2023/04/23 01:54:15;;;;;;;0.20;0.20;;;;;;;8.75;48.32;99532.19;5108476;27;20062;-69
2023/04/23 01:56:42;;;;;;;0.30;0.25;;;;;;;8.73;48.61;99523.44;5109556;27;20043;-68
2023/04/23 01:59:08;;;;;;;;;;;;;;;8.73;48.48;99523.44;5090854;27;20547;-69
2023/04/23 02:01:42;;;;;;;0.20;0.20;;;;;;;8.72;48.42;99517.19;5128063;27;19923;-68
2023/04/23 02:04:09;;;;;;;0.20;0.20;;;;;;;8.74;47.98;99527.81;5109474;27;20047;-69
2023/04/23 02:06:35;;;;;;;0.25;0.20;;;;;;;8.75;48.40;99526.75;5089986;27;20407;-69
2023/04/23 02:09:01;;;;;;;0.20;0.20;;;;;;;8.70;48.69;99529.44;5127032;27;20510;-68
2023/04/23 02:11:27;;;;;;;0.17;0.17;;;;;;;8.65;48.65;99539.25;5092266;27;20146;-68
2023/04/23 02:13:55;;;;;;;0.20;0.20;;;;;;;8.66;48.54;99534.59;5126959;27;20598;-69
2023/04/23 02:16:23;;;;;;;;;;;;;;;8.65;48.52;99532.97;5127452;27;20058;-68
2023/04/23 02:18:49;;;;;;;0.65;0.30;;;;;;;8.73;48.16;99537.06;5127752;27;19923;-69
2023/04/23 02:21:16;;;;;;;0.20;0.20;;;;;;;8.77;48.04;99539.00;5092219;27;20051;-69
2023/04/23 02:23:42;;;;;;;0.22;0.20;;;;;;;8.75;48.61;99534.94;5126026;27;20051;-70
2023/04/23 02:26:08;;;;;;;0.20;0.20;;;;;;;8.67;48.80;99539.00;5106986;27;20047;-69
2023/04/23 02:28:35;;;;;;;0.20;0.20;;;;;;;8.63;49.03;99537.88;5092276;27;20134;-69
2023/04/23 02:31:03;;;;;;;0.30;0.20;;;;;;;8.66;49.30;99545.50;5126035;27;20043;-69
2023/04/23 02:33:29;;;;;;;0.28;0.28;;;;;;;8.73;48.82;99545.25;5105672;27;20206;-69
2023/04/23 02:35:55;;;;;;;0.20;0.20;;;;;;;8.83;48.59;99537.13;5107159;27;20376;-69
2023/04/23 02:38:22;;;;;;;0.20;0.20;;;;;;;8.91;48.37;99547.50;5124152;27;20088;-69
2023/04/23 02:40:49;;;;;;;0.22;0.22;;;;;;;8.93;48.37;99541.75;5123592;27;20054;-68
2023/04/23 02:43:17;;;;;;;0.20;0.20;;;;;;;8.93;48.02;99541.75;5105611;27;20052;-68
2023/04/23 02:45:43;;;;;;;0.20;0.20;;;;;;;9.02;47.81;99542.03;5126199;27;20222;-69
2023/04/23 02:48:11;;;;;;;0.50;0.35;;;;;;;9.10;48.00;99552.44;5126785;27;20051;-69
2023/04/23 02:50:40;;;;;;;;;;;;;;;9.15;47.76;99554.34;5125865;27;20043;-69
2023/04/23 02:53:07;;;;;;;0.45;0.30;;;;;;;9.21;47.73;99556.81;5126431;27;19962;-68
2023/04/23 02:55:33;;;;;;;0.20;0.20;;;;;;;9.24;47.46;99549.97;5107750;27;20076;-68
2023/04/23 02:57:59;;;;;;;0.30;0.30;;;;;;;9.27;47.38;99559.53;5109350;27;20145;-69
2023/04/23 03:00:26;;;;;;;0.20;0.20;;;;;;;9.30;47.74;99562.53;5105477;27;20047;-69
2023/04/23 03:02:52;;;;;;;0.30;0.30;;;;;;;9.28;47.60;99556.53;5125750;27;20080;-68
2023/04/23 03:05:20;;;;;;;0.20;0.20;;;;;;;9.33;47.50;99564.72;5106314;27;20066;-69
2023/04/23 03:07:47;;;;;;;0.32;0.32;;;;;;;9.35;47.32;99558.97;5105075;27;20077;-69
2023/04/23 03:10:13;;;;;;;0.20;0.20;;;;;;;9.44;47.36;99560.09;5102132;27;20141;-69
2023/04/23 03:12:39;;;;;;;0.20;0.20;;;;;;;9.59;47.38;99563.91;5121458;27;20143;-69
2023/04/23 03:15:06;;;;;;;0.20;0.20;;;;;;;9.74;46.63;99563.88;5124835;27;20050;-68
2023/04/23 03:17:35;;;;;;;0.25;0.20;;;;;;;9.91;45.96;99565.50;5122391;27;20049;-69
2023/04/23 03:20:03;;;;;;;0.20;0.20;;;;;;;10.04;45.59;99570.38;5121843;27;20139;-69
2023/04/23 03:22:32;;;;;;;0.20;0.20;;;;;;;10.12;45.85;99571.75;5105006;27;20051;-68
2023/04/23 03:24:58;;;;;;;;;;;;;;;10.14;45.88;99575.00;5125951;27;20050;-68
2023/04/23 03:27:24;;;;;;;0.25;0.25;;;;;;;10.22;45.46;99579.09;5125434;27;19923;-69
2023/04/23 03:29:51;;;;;;;0.25;0.25;;;;;;;10.37;44.94;99591.88;5088343;27;20050;-69
2023/04/23 03:32:17;;;;;;;0.28;0.25;;;;;;;10.50;44.92;99588.56;5104902;27;20100;-69
2023/04/23 03:34:43;;;;;;;0.10;0.10;;;;;;;10.67;44.86;99584.66;5106024;27;20125;-69
2023/04/23 03:37:09;;;;;;;0.20;0.20;;;;;;;10.82;44.65;99586.53;5087331;27;20043;-70
2023/04/23 03:39:39;;;;;;;0.30;0.30;;;;;;;10.95;44.29;99582.34;5107520;28;20047;-70
2023/04/23 03:42:06;;;;;;;0.22;0.22;;;;;;;11.21;43.97;99591.19;5104169;28;20103;-70
2023/04/23 03:44:32;;;;;;;0.20;0.20;;;;;;;11.44;43.68;99596.25;5108306;28;20075;-69
2023/04/23 03:46:58;;;;;;;0.40;0.30;;;;;;;11.65;43.10;99599.63;5108146;28;20513;-70
2023/04/23 03:49:26;;;;;;;0.20;0.20;;;;;;;11.86;42.93;99599.44;5088229;28;20099;-69
2023/04/23 03:51:54;;;;;;;0.20;0.20;;;;;;;11.98;41.86;99602.63;5104856;28;20493;-70
2023/04/23 03:54:24;;;;;;;0.30;0.30;;;;;;;12.03;41.11;99605.38;5105311;28;20130;-70
2023/04/23 03:57:11;;;;;;;0.20;0.20;;;;;;;11.98;40.96;99599.88;5102884;28;20062;-70
2023/04/23 04:00:13;;;;;;;0.20;0.20;;;;;;;11.97;40.97;99608.41;5066738;28;20059;-70
2023/04/23 04:02:41;;;;;;;0.20;0.20;;;;;;;11.95;40.89;99603.22;5108391;28;20051;-71
2023/04/23 04:05:08;;;;;;;0.22;0.20;;;;;;;11.94;41.27;99609.78;5106619;28;20600;-70
2023/04/23 04:07:35;;;;;;;0.20;0.20;;;;;;;11.98;40.86;99610.03;5108074;28;20043;-70
2023/04/23 04:10:02;;;;;;;;;;;;;;;12.03;41.16;99613.59;5109845;28;20040;-69
2023/04/23 04:12:30;;;;;;;0.13;0.13;;;;;;;11.99;41.25;99614.41;5107547;28;19923;-69
2023/04/23 04:14:56;;;;;;;;;;;;;;;11.94;41.56;99611.69;5107502;28;20074;-69
2023/04/23 04:17:22;;;;;;;0.30;0.20;;;;;;;11.84;41.55;99623.56;5106913;28;19955;-69
2023/04/23 04:19:49;;;;;;;0.20;0.20;;;;;;;11.78;41.62;99617.31;5106427;28;20048;-71
2023/04/23 04:22:15;;;;;;;0.20;0.20;;;;;;;11.73;41.66;99610.00;5106702;28;20051;-68
2023/04/23 04:24:42;;;;;;;0.28;0.28;;;;;;;11.84;41.75;99618.94;5107261;28;20419;-70
2023/04/23 04:27:08;;;;;;;0.20;0.20;;;;;;;11.98;41.06;99619.06;5108324;28;20568;-70
2023/04/23 04:29:36;;;;;;;0.20;0.20;;;;;;;12.04;41.22;99617.97;5090748;28;20054;-68
2023/04/23 04:32:04;;;;;;;;;;;;;;;12.11;40.78;99616.78;5108710;28;20043;-70
2023/04/23 04:34:30;;;;;;;0.45;0.30;;;;;;;12.28;40.15;99625.38;5107659;28;19923;-70
2023/04/23 04:36:56;;;;;;;0.20;0.20;;;;;;;12.59;39.88;99621.47;5109369;28;20116;-70
2023/04/23 04:39:23;;;;;;;0.20;0.20;;;;;;;12.95;39.31;99631.16;5107014;28;20048;-70
2023/04/23 04:41:49;;;;;;;0.20;0.20;;;;;;;13.29;38.38;99630.97;5107982;28;20267;-70
2023/04/23 04:44:15;;;;;;;0.20;0.20;;;;;;;13.58;37.66;99632.75;5106722;27;20050;-70
2023/04/23 04:46:43;;;;;;;0.30;0.30;;;;;;;13.68;37.19;99636.47;5104249;28;20051;-69
2023/04/23 04:49:11;;;;;;;0.20;0.20;;;;;;;13.79;37.08;99637.13;5106670;28;20100;-69
2023/04/23 04:51:38;;;;;;;0.22;0.22;;;;;;;13.75;37.01;99626.72;5107315;28;20050;-69
2023/04/23 04:54:05;;;;;;;0.20;0.20;;;;;;;13.90;37.16;99646.84;5107010;28;20473;-69
2023/04/23 04:56:32;;;;;;;0.20;0.20;;;;;;;14.00;36.55;99643.09;5110028;28;20051;-69
2023/04/23 04:58:58;;;;;;;0.20;0.20;;;;;;;14.07;36.59;99639.94;5130882;27;20487;-69
2023/04/23 05:01:26;;;;;;;0.20;0.20;;;;;;;14.19;36.58;99634.75;5127881;27;20878;-69
2023/04/23 05:03:56;;;;;;;0.20;0.20;;;;;;;14.28;36.02;99637.63;5095336;27;20050;-69
2023/04/23 05:06:22;;;;;;;0.20;0.20;;;;;;;14.46;35.54;99650.50;5111519;27;20146;-69
2023/04/23 05:08:49;;;;;;;0.30;0.30;;;;;;;14.61;35.19;99641.09;5127512;27;20487;-69
2023/04/23 05:11:16;;;;;;;0.20;0.20;;;;;;;14.77;34.86;99648.28;5128022;27;20107;-70
2023/04/23 05:13:43;;;;;;;0.20;0.20;;;;;;;14.71;35.18;99661.28;5127720;27;20047;-69
2023/04/23 05:16:10;;;;;;;0.20;0.20;;;;;;;14.69;35.34;99658.84;5089779;28;20054;-69
2023/04/23 05:18:37;;;;;;;0.28;0.28;;;;;;;14.83;35.18;99653.38;5105422;28;20344;-69
2023/04/23 05:21:05;;;;;;;0.30;0.30;;;;;;;14.92;35.01;99653.47;5106823;28;20049;-69
2023/04/23 05:23:31;;;;;;;0.20;0.20;;;;;;;15.03;34.94;99659.56;5088816;28;20146;-69
2023/04/23 05:25:57;;;;;;;0.20;0.20;;;;;;;15.12;35.06;99667.91;5107203;28;20058;-69
2023/04/23 05:28:24;;;;;;;0.20;0.20;;;;;;;15.14;34.42;99655.47;5108123;28;20048;-69
2023/04/23 05:30:51;;;;;;;0.20;0.20;;;;;;;15.11;34.48;99658.03;5107117;28;20460;-69
2023/04/23 05:33:17;;;;;;;0.20;0.20;;;;;;;15.19;34.30;99668.28;5106711;28;20457;-69
2023/04/23 05:35:43;;;;;;;0.30;0.30;;;;;;;15.10;34.44;99670.97;5088487;28;20051;-69
2023/04/23 05:38:11;;;;;;;0.30;0.30;;;;;;;14.94;34.69;99647.63;5106339;28;20529;-69
2023/04/23 05:40:37;;;;;;;0.30;0.30;;;;;;;15.14;34.54;99666.50;5105458;28;20139;-69
2023/04/23 05:43:04;;;;;;;0.30;0.30;;;;;;;15.22;34.35;99670.44;5053784;28;20051;-69
2023/04/23 05:45:30;;;;;;;0.20;0.20;;;;;;;15.20;34.19;99674.63;5106721;28;20320;-69
2023/04/23 05:47:56;;;;;;;0.30;0.30;;;;;;;15.24;34.52;99676.47;5089980;28;20493;-69
2023/04/23 05:50:22;;;;;;;0.30;0.30;;;;;;;15.35;34.02;99671.53;5107175;28;20522;-69
2023/04/23 05:52:48;;;;;;;0.35;0.30;;;;;;;15.47;33.75;99678.44;5087752;28;20583;-69
2023/04/23 05:55:17;;;;;;;0.20;0.20;;;;;;;15.57;33.30;99669.94;5087767;28;20414;-69
2023/04/23 05:57:43;;;;;;;0.20;0.20;;;;;;;15.49;33.10;99676.19;5106714;27;20153;-69
2023/04/23 06:00:13;;;;;;;0.50;0.30;;;;;;;15.39;33.18;99675.28;5128317;27;20054;-69
2023/04/23 06:02:40;;;;;;;0.28;0.28;;;;;;;15.35;33.46;99678.97;5105848;28;20158;-69
2023/04/23 06:05:07;;;;;;;0.30;0.30;;;;;;;15.31;33.62;99676.84;5129404;27;20047;-69
2023/04/23 06:07:34;;;;;;;0.30;0.30;;;;;;;15.32;33.23;99678.47;5126555;27;20043;-69
2023/04/23 06:10:01;;;;;;;0.20;0.20;;;;;;;15.30;32.89;99683.47;5124965;27;20055;-69
2023/04/23 06:12:28;;;;;;;0.40;0.40;;;;;;;15.39;33.16;99682.75;5126061;27;20051;-69
2023/04/23 06:14:54;;;;;;;0.75;0.30;;;;;;;15.59;32.80;99687.78;5126989;27;20047;-69
2023/04/23 06:17:20;;;;;;;0.35;0.30;;;;;;;15.89;32.63;99692.91;5127947;27;20075;-69
2023/04/23 06:19:46;;;;;;;0.50;0.40;;;;;;;16.21;31.86;99682.72;5122547;27;20047;-69
2023/04/23 06:22:13;;;;;;;0.40;0.40;;;;;;;16.53;31.09;99693.78;5122122;27;20047;-69
2023/04/23 06:24:39;;;;;;;0.73;0.50;;;;;;;16.82;30.73;99689.66;4773910;27;9999840;-69
2023/04/23 06:27:05;;;;;;;0.60;0.50;;;;;;;17.19;30.35;99689.47;5105484;27;20062;-69
2023/04/23 06:29:37;;;;;;;1.10;0.60;;;;;;;17.49;29.84;99692.44;5108266;27;20051;-69
2023/04/23 06:32:04;;;;;;;0.45;0.40;;;;;;;17.71;29.14;99695.03;5106627;27;20104;-69
2023/04/23 06:34:30;;;;;;;0.30;0.30;;;;;;;17.75;28.32;99697.97;5124357;27;20050;-69
2023/04/23 06:36:57;;;;;;;0.32;0.32;;;;;;;17.81;28.66;99707.72;5124840;27;20082;-70
2023/04/23 06:39:23;;;;;;;0.30;0.30;;;;;;;17.92;28.35;99702.66;5123975;27;20047;-69
2023/04/23 06:41:49;;;;;;;0.30;0.30;;;;;;;18.05;28.02;99705.59;5125815;27;20057;-69
2023/04/23 06:44:22;;;;;;;0.30;0.30;;;;;;;18.24;27.75;99700.53;5090485;28;20211;-69
2023/04/23 06:46:52;;;;;;;0.40;0.40;;;;;;;18.24;27.54;99703.28;5113333;27;20069;-69
2023/04/23 06:49:19;;;;;;;0.30;0.30;;;;;;;18.15;27.61;99708.03;5113350;27;20043;-69
2023/04/23 06:51:45;;;;;;;0.30;0.30;;;;;;;17.85;27.92;99707.88;5094174;27;20067;-70
2023/04/23 06:54:12;;;;;;;0.30;0.30;;;;;;;17.72;27.95;99704.16;5115437;27;20048;-69
2023/04/23 06:56:38;;;;;;;0.38;0.38;;;;;;;17.82;27.96;99708.53;5086614;27;20912;-69
2023/04/23 06:59:05;;;;;;;0.38;0.38;;;;;;;17.88;27.94;99709.19;5094069;28;20035;-69
2023/04/23 07:01:34;;;;;;;0.40;0.40;;;;;;;18.25;27.54;99715.97;5053231;28;20043;-69
2023/04/23 07:04:03;;;;;;;0.40;0.40;;;;;;;18.39;26.81;99710.25;5105397;27;20527;-69
2023/04/23 07:06:30;;;;;;;0.30;0.30;;;;;;;18.33;27.08;99719.88;5097512;28;20048;-71
2023/04/23 07:08:56;;;;;;;0.63;0.30;;;;;;;18.56;27.09;99703.03;5107784;27;20043;-70
2023/04/23 07:11:23;;;;;;;0.30;0.30;;;;;;;18.83;26.35;99712.06;5127955;27;20077;-70
2023/04/23 07:13:50;;;;;;;0.50;0.50;;;;;;;18.64;26.35;99715.22;5126646;27;20608;-70
2023/04/23 07:16:16;;;;;;;0.40;0.40;;;;;;;18.82;26.50;99704.91;5127194;27;20043;-70
2023/04/23 07:18:42;;;;;;;0.40;0.40;;;;;;;19.15;25.98;99717.28;5126082;27;20047;-71
2023/04/23 07:21:10;;;;;;;0.38;0.38;;;;;;;19.33;25.40;99713.25;5109051;27;20046;-70
2023/04/23 07:23:36;;;;;;;0.40;0.40;;;;;;;19.43;25.17;99712.06;5107347;27;20568;-70
2023/04/23 07:26:03;;;;;;;0.40;0.40;;;;;;;19.62;25.27;99719.13;5124594;27;20049;-70
2023/04/23 07:28:29;;;;;;;0.50;0.50;;;;;;;20.01;24.98;99717.00;5124503;27;20047;-70
2023/04/23 07:30:55;;;;;;;0.50;0.50;;;;;;;20.52;24.51;99716.81;5107627;27;20051;-70
2023/04/23 07:33:21;;;;;;;0.50;0.50;;;;;;;20.75;24.07;99718.34;5124334;27;20039;-70
2023/04/23 07:35:47;;;;;;;0.40;0.40;;;;;;;20.49;23.84;99716.69;5121742;27;20218;-70
2023/04/23 07:38:15;;;;;;;0.40;0.40;;;;;;;20.23;24.30;99724.13;5123533;27;20075;-70
2023/04/23 07:40:42;;;;;;;0.55;0.40;;;;;;;20.16;24.14;99715.56;5106376;28;20142;-70
2023/04/23 07:43:08;;;;;;;0.40;0.40;;;;;;;19.95;24.30;99715.59;5123890;27;20047;-70
2023/04/23 07:45:34;;;;;;;0.40;0.40;;;;;;;19.71;24.56;99725.38;5124693;27;20533;-70
2023/04/23 07:48:01;;;;;;;1.35;0.43;;;;;;;19.50;25.23;99717.88;5127263;27;20050;-70
2023/04/23 07:50:28;;;;;;;0.30;0.30;;;;;;;19.46;25.23;99718.91;5127364;27;20413;-71
2023/04/23 07:52:55;;;;;;;0.40;0.40;;;;;;;19.61;25.22;99717.50;5126358;28;20146;-71
2023/04/23 07:55:22;;;;;;;0.40;0.40;;;;;;;19.72;25.17;99701.25;5111730;28;20082;-70
2023/04/23 07:57:49;;;;;;;0.47;0.45;;;;;;;19.71;24.77;99719.84;5107135;28;20304;-70
2023/04/23 08:00:15;;;;;;;0.55;0.50;;;;;;;19.74;24.66;99712.81;5120363;28;20108;-71
2023/04/23 08:02:42;;;;;;;0.47;0.47;;;;;;;19.27;25.02;99709.88;5090941;28;20051;-71
2023/04/23 08:05:08;;;;;;;0.50;0.50;;;;;;;18.88;25.30;99719.34;5107988;28;20047;-71
2023/04/23 08:07:35;;;;;;;1.00;0.60;;;;;;;18.69;25.67;99713.09;5105298;28;20443;-71
2023/04/23 08:10:04;;;;;;;0.40;0.40;;;;;;;18.85;25.63;99715.31;5123176;28;20043;-71
2023/04/23 08:12:34;;;;;;;0.50;0.50;;;;;;;19.05;25.66;99726.81;5123313;28;20058;-71
2023/04/23 08:15:01;;;;;;;0.50;0.50;;;;;;;18.96;26.04;99716.53;5125939;27;20047;-71
2023/04/23 08:17:34;;;;;;;0.60;0.40;;;;;;;19.30;24.07;99727.81;5125566;28;20043;-70
2023/04/23 08:20:00;;;;;;;0.73;0.50;;;;;;;19.51;22.89;99716.75;5123825;28;20043;-70
2023/04/23 08:22:26;;;;;;;0.40;0.40;;;;;;;20.07;22.37;99717.63;5124476;27;20093;-71
2023/04/23 08:24:53;;;;;;;0.40;0.40;;;;;;;21.17;21.16;99715.38;5105439;28;20062;-71
2023/04/23 08:27:19;;;;;;;0.40;0.40;;;;;;;21.62;21.08;99710.75;5125614;27;20510;-71
2023/04/23 08:29:47;;;;;;;0.40;0.40;;;;;;;21.28;21.16;99720.44;5124299;27;20047;-71
2023/04/23 08:32:13;;;;;;;0.50;0.50;;;;;;;20.59;21.77;99724.56;5123741;28;20039;-71
2023/04/23 08:34:39;;;;;;;0.60;0.60;;;;;;;21.01;21.72;99709.69;5126090;27;20047;-71
2023/04/23 08:37:05;;;;;;;0.50;0.50;;;;;;;21.89;20.59;99716.75;5124566;28;20216;-70
2023/04/23 08:39:33;;;;;;;0.50;0.50;;;;;;;22.69;19.61;99706.91;5122109;28;20289;-70
2023/04/23 08:42:03;;;;;;;;;;;;;;;23.48;18.97;99708.00;5124039;27;20061;-69
2023/04/23 08:44:31;;;;;;;0.70;0.70;;;;;;;24.72;17.79;99717.59;5124676;28;20461;-71
2023/04/23 08:47:04;;;;;;;0.70;0.70;;;;;;;25.51;16.99;99705.22;5108726;27;20116;-71
2023/04/23 08:49:34;;;;;;;0.50;0.50;;;;;;;25.43;16.87;99696.72;5123716;27;20043;-70
2023/04/23 08:52:09;;;;;;;0.80;0.80;;;;;;;25.77;16.63;99701.56;5081691;28;20051;-69
2023/04/23 08:54:41;;;;;;;0.70;0.70;;;;;;;26.35;15.94;99707.81;5069370;28;20154;-71
2023/04/23 08:57:08;;;;;;;0.70;0.70;;;;;;;26.09;16.11;99705.94;5118380;27;20071;-70
2023/04/23 08:59:36;;;;;;;0.80;0.80;;;;;;;24.78;16.94;99709.72;5109011;27;20120;-71
2023/04/23 09:02:08;;;;;;;0.40;0.40;;;;;;;24.20;17.19;99703.09;5131054;27;20422;-71
2023/04/23 09:04:35;;;;;;;0.50;0.50;;;;;;;22.66;18.96;99706.47;5127935;27;20079;-70
2023/04/23 09:07:03;;;;;;;0.63;0.63;;;;;;;22.32;19.73;99705.16;5130561;27;20072;-71
2023/04/23 09:09:30;;;;;;;0.70;0.70;;;;;;;22.44;19.46;99709.84;5124935;27;20054;-70
2023/04/23 09:11:57;;;;;;;0.70;0.70;;;;;;;23.00;18.80;99705.28;5086641;28;20044;-70
2023/04/23 09:14:24;;;;;;;0.70;0.70;;;;;;;23.77;18.09;99705.81;5090045;28;20780;-70
2023/04/23 09:16:50;;;;;;;0.70;0.70;;;;;;;24.51;17.80;99692.88;5107796;28;20040;-70
2023/04/23 09:19:18;;;;;;;0.80;0.80;;;;;;;25.77;17.02;99693.19;5110072;28;20176;-70
2023/04/23 09:21:45;;;;;;;0.80;0.80;;;;;;;26.64;15.63;99691.28;5109102;28;20082;-70
2023/04/23 09:24:12;;;;;;;;;;;;;;;26.69;15.67;99696.50;5123408;27;20043;-70
2023/04/23 09:26:44;;;;;;;0.90;0.90;;;;;;;25.97;16.17;99698.59;5126474;27;19923;-71
2023/04/23 09:29:12;;;;;;;0.90;0.90;;;;;;;25.87;16.06;99694.50;5119094;27;20047;-70
2023/04/23 09:31:39;;;;;;;1.00;0.90;;;;;;;25.81;15.98;99694.03;5126019;27;20054;-70
2023/04/23 09:34:07;;;;;;;0.90;0.90;;;;;;;26.10;15.71;99693.53;5111271;27;20046;-70
2023/04/23 09:36:36;;;;;;;1.00;1.00;;;;;;;25.73;16.25;99690.31;5127001;27;20051;-70
2023/04/23 09:39:11;;;;;;;1.00;1.00;;;;;;;25.90;15.78;99688.13;5126413;27;20460;-70
2023/04/23 09:41:37;;;;;;;0.90;0.90;;;;;;;26.07;16.02;99688.69;5127503;27;20540;-70
2023/04/23 09:44:03;;;;;;;0.90;0.90;;;;;;;26.54;15.52;99686.41;5128176;27;20051;-72
2023/04/23 09:46:34;;;;;;;0.80;0.80;;;;;;;26.39;15.34;99689.06;5125740;27;20651;-70
2023/04/23 09:49:02;;;;;;;1.00;1.00;;;;;;;26.40;15.59;99671.06;5125639;27;20717;-70
2023/04/23 09:51:29;;;;;;;1.00;1.00;;;;;;;26.95;15.21;99677.91;5122625;27;20043;-70
2023/04/23 09:53:57;;;;;;;1.00;1.00;;;;;;;27.58;14.58;99685.53;5126579;27;20515;-70
2023/04/23 09:56:24;;;;;;;1.00;1.00;;;;;;;27.96;14.63;99674.81;5121618;27;20210;-70
2023/04/23 09:58:50;;;;;;;1.10;1.10;;;;;;;27.97;14.25;99673.63;5125289;27;20300;-70
2023/04/23 10:01:16;;;;;;;1.10;1.10;;;;;;;27.86;14.43;99672.78;5107664;27;20138;-70
2023/04/23 10:03:43;;;;;;;;;;;;;;;28.34;14.43;99673.75;5124903;27;20652;-69
2023/04/23 10:06:13;;;;;;;0.60;0.60;;;;;;;27.64;14.83;99661.47;5126886;27;20356;-70
2023/04/23 10:08:40;;;;;;;0.95;0.90;;;;;;;25.99;15.96;99665.41;5125110;27;20051;-71
2023/04/23 10:11:09;;;;;;;1.00;1.00;;;;;;;24.98;16.50;99676.91;5128439;27;20055;-71
2023/04/23 10:13:36;;;;;;;1.17;1.17;;;;;;;24.13;17.46;99677.84;5125630;27;20047;-71
2023/04/23 10:16:04;;;;;;;0.50;0.50;;;;;;;24.91;16.80;99668.38;5128431;27;20054;-71
2023/04/23 10:18:32;;;;;;;0.50;0.50;;;;;;;24.89;16.89;99676.34;5125581;27;20074;-71
2023/04/23 10:21:01;;;;;;;0.40;0.40;;;;;;;23.79;17.90;99672.78;5129007;27;20070;-71
2023/04/23 10:23:30;;;;;;;0.50;0.50;;;;;;;22.82;18.83;99663.84;5128006;27;20103;-71
2023/04/23 10:25:59;;;;;;;0.60;0.60;;;;;;;23.16;18.26;99671.81;5127257;27;20557;-70
2023/04/23 10:28:32;;;;;;;0.93;0.93;;;;;;;23.27;18.58;99664.53;5126734;27;20053;-71
2023/04/23 10:30:59;;;;;;;0.40;0.40;;;;;;;23.58;18.43;99656.41;5093059;27;20055;-70
2023/04/23 10:33:30;;;;;;;0.60;0.60;;;;;;;22.84;18.98;99664.31;5124491;27;20193;-70
2023/04/23 10:35:56;;;;;;;0.40;0.40;;;;;;;21.82;19.69;99658.09;5127486;27;20047;-71
2023/04/23 10:38:23;;;;;;;1.00;1.00;;;;;;;21.42;20.16;99653.34;5126182;27;20079;-71
2023/04/23 10:40:54;;;;;;;1.25;1.20;;;;;;;23.25;18.68;99663.25;5123898;27;20517;-70
2023/04/23 10:43:21;;;;;;;0.40;0.40;;;;;;;23.97;17.89;99655.56;5126434;27;20049;-70
2023/04/23 10:45:48;;;;;;;0.40;0.40;;;;;;;22.84;18.37;99652.38;5108889;27;20043;-71
2023/04/23 10:48:15;;;;;;;0.40;0.40;;;;;;;22.09;19.10;99653.69;5126590;27;20055;-71
2023/04/23 10:50:43;;;;;;;;;;;;;;;21.85;19.56;99642.66;5127684;27;20054;-70
2023/04/23 10:53:19;;;;;;;1.30;1.20;;;;;;;24.23;17.90;99646.50;5125315;27;19923;-71
2023/04/23 10:55:46;;;;;;;1.30;1.20;;;;;;;26.76;15.62;99639.69;5126572;27;20055;-71
2023/04/23 10:58:12;;;;;;;1.30;1.20;;;;;;;27.94;14.89;99634.28;5127007;27;20070;-71
2023/04/23 11:00:44;;;;;;;1.30;1.20;;;;;;;28.39;14.12;99651.63;5128420;27;20361;-71
2023/04/23 11:03:30;;;;;;;1.30;1.20;;;;;;;27.80;14.18;99649.09;5126428;27;20063;-70
2023/04/23 11:05:59;;;;;;;1.30;1.20;;;;;;;26.98;14.86;99649.09;5127477;27;20042;-71
2023/04/23 11:08:27;;;;;;;1.30;1.20;;;;;;;27.03;14.79;99639.50;5127048;27;20054;-71
2023/04/23 11:10:58;;;;;;;1.40;1.30;;;;;;;27.36;14.70;99634.88;4771135;27;10000921;-71
2023/04/23 11:13:25;;;;;;;1.52;1.30;;;;;;;26.69;14.93;99662.88;5120848;27;20047;-70
2023/04/23 11:16:08;;;;;;;;;;;;;;;26.47;15.02;99639.50;5124646;27;20054;-70
2023/04/23 11:18:58;;;;;;;1.40;1.30;;;;;;;27.12;14.67;99627.94;5107791;27;19927;-70
2023/04/23 11:21:57;;;;;;;1.40;1.30;;;;;;;28.00;13.93;99627.09;5124437;27;20547;-71
2023/04/23 11:24:25;;;;;;;1.40;1.30;;;;;;;28.00;14.00;99638.31;5118253;27;20051;-71
2023/04/23 11:26:55;;;;;;;1.90;1.30;;;;;;;28.60;13.57;99636.00;5107503;27;20047;-71
2023/04/23 11:29:23;;;;;;;1.40;1.30;;;;;;;28.76;13.80;99635.56;5099497;27;20572;-72
2023/04/23 11:31:50;;;;;;;1.40;1.30;;;;;;;29.88;13.47;99625.97;5090993;27;20039;-71
2023/04/23 11:34:18;;;;;;;1.40;1.30;;;;;;;31.17;12.25;99619.66;5122879;27;20051;-71
2023/04/23 11:36:45;;;;;;;1.40;1.30;;;;;;;31.79;11.57;99616.13;5124579;27;20593;-71
2023/04/23 11:39:12;;;;;;;1.40;1.30;;;;;;;31.91;11.85;99624.00;5108033;27;20047;-72
2023/04/23 11:41:38;;;;;;;1.40;1.30;;;;;;;30.98;12.18;99627.53;5105401;28;20051;-71